createdAt,value
2024-05-09T00:00:43.859Z,3.60
2024-05-09T00:03:12.065Z,3.60
2024-05-09T00:05:41.528Z,3.70
2024-05-09T00:08:10.030Z,3.60
2024-05-09T00:10:39.514Z,3.40
2024-05-09T00:13:08.432Z,3.40
2024-05-09T00:15:36.660Z,3.30
2024-05-09T00:18:05.607Z,3.30
2024-05-09T00:20:38.758Z,3.30
2024-05-09T00:23:12.701Z,3.30
2024-05-09T00:25:43.419Z,3.20
2024-05-09T00:28:12.718Z,3.20
2024-05-09T00:30:40.857Z,3.10
2024-05-09T00:33:09.776Z,3.20
2024-05-09T00:35:38.817Z,3.10
2024-05-09T00:38:06.353Z,3.10
2024-05-09T00:40:40.504Z,3.20
2024-05-09T00:43:10.844Z,3.10
2024-05-09T00:45:38.278Z,3.00
2024-05-09T00:48:08.565Z,3.00
2024-05-09T00:50:40.614Z,3.00
2024-05-09T00:53:10.964Z,3.10
2024-05-09T00:55:38.962Z,3.20
2024-05-09T00:58:08.548Z,3.10
2024-05-09T01:00:39.710Z,3.00
2024-05-09T01:03:12.720Z,2.90
2024-05-09T01:08:14.051Z,3.00
2024-05-09T01:10:44.847Z,3.00
2024-05-09T01:13:13.277Z,3.00
2024-05-09T01:15:40.402Z,2.90
2024-05-09T01:18:10.721Z,2.90
2024-05-09T01:20:43.378Z,2.90
2024-05-09T01:23:14.536Z,2.70
2024-05-09T01:25:47.310Z,2.70
2024-05-09T01:28:16.659Z,2.80
2024-05-09T01:30:43.805Z,3.00
2024-05-09T01:33:12.465Z,2.90
2024-05-09T01:35:42.572Z,2.90
2024-05-09T01:38:13.817Z,2.90
2024-05-09T01:40:41.425Z,2.80
2024-05-09T01:43:11.363Z,2.80
2024-05-09T01:45:40.347Z,2.70
2024-05-09T01:48:08.766Z,2.80
2024-05-09T01:50:40.340Z,2.60
2024-05-09T01:55:39.195Z,2.50
2024-05-09T01:58:06.331Z,2.50
2024-05-09T02:00:39.755Z,2.50
2024-05-09T02:03:14.535Z,2.50
2024-05-09T02:05:45.616Z,2.50
2024-05-09T02:08:19.438Z,2.50
2024-05-09T02:10:48.329Z,2.40
2024-05-09T02:13:16.747Z,2.40
2024-05-09T02:15:44.177Z,2.60
2024-05-09T02:18:11.725Z,2.60
2024-05-09T02:20:41.311Z,2.60
2024-05-09T02:23:09.163Z,2.50
2024-05-09T02:25:36.574Z,2.30
2024-05-09T02:28:04.801Z,2.50
2024-05-09T02:30:39.405Z,2.70
2024-05-09T02:33:11.835Z,2.60
2024-05-09T02:35:40.914Z,2.50
2024-05-09T02:38:09.647Z,2.40
2024-05-09T02:40:39.061Z,2.40
2024-05-09T02:43:08.870Z,2.50
2024-05-09T02:45:37.799Z,2.40
2024-05-09T02:48:05.569Z,2.40
2024-05-09T02:50:38.048Z,2.90
2024-05-09T02:53:07.886Z,2.30
2024-05-09T02:55:35.219Z,2.30
2024-05-09T02:58:02.455Z,2.30
2024-05-09T03:00:37.652Z,2.40
2024-05-09T03:03:09.972Z,2.50
2024-05-09T03:05:40.706Z,1.60
2024-05-09T03:08:08.141Z,2.20
2024-05-09T03:10:37.684Z,2.20
2024-05-09T03:13:16.152Z,2.10
2024-05-09T03:15:44.710Z,2.20
2024-05-09T03:18:12.728Z,2.20
2024-05-09T03:20:40.823Z,2.10
2024-05-09T03:23:09.732Z,2.10
2024-05-09T03:25:38.402Z,2.10
2024-05-09T03:28:05.952Z,2.20
2024-05-09T03:30:40.175Z,2.30
2024-05-09T03:33:20.583Z,2.20
2024-05-09T03:35:49.048Z,2.10
2024-05-09T03:38:17.208Z,2.30
2024-05-09T03:40:49.621Z,1.90
2024-05-09T03:43:19.171Z,1.90
2024-05-09T03:45:48.869Z,2.10
2024-05-09T03:48:16.995Z,2.30
2024-05-09T03:50:44.691Z,2.30
2024-05-09T03:53:13.715Z,2.20
2024-05-09T03:55:41.234Z,2.10
2024-05-09T03:58:08.575Z,2.00
2024-05-09T04:00:39.183Z,2.00
2024-05-09T04:03:10.822Z,2.00
2024-05-09T04:05:44.724Z,2.00
2024-05-09T04:08:15.235Z,2.00
2024-05-09T04:10:42.712Z,1.50
2024-05-09T04:13:10.950Z,1.90
2024-05-09T04:15:39.107Z,2.20
2024-05-09T04:18:07.675Z,2.20
2024-05-09T04:20:39.171Z,2.20
2024-05-09T04:23:11.138Z,2.20
2024-05-09T04:25:41.678Z,2.00
2024-05-09T04:28:11.285Z,2.20
2024-05-09T04:30:41.023Z,2.40
2024-05-09T04:33:12.387Z,2.50
2024-05-09T04:35:45.026Z,2.60
2024-05-09T04:38:15.986Z,2.50
2024-05-09T04:40:43.532Z,2.50
2024-05-09T04:43:19.259Z,2.50
2024-05-09T04:45:46.778Z,2.70
2024-05-09T04:48:14.022Z,2.70
2024-05-09T04:50:41.614Z,2.80
2024-05-09T04:53:11.199Z,2.90
2024-05-09T04:55:39.403Z,3.00
2024-05-09T04:58:10.513Z,2.90
2024-05-09T05:00:40.181Z,3.10
2024-05-09T05:03:10.806Z,3.10
2024-05-09T05:05:41.367Z,3.00
2024-05-09T05:08:17.543Z,3.10
2024-05-09T05:10:46.450Z,3.40
2024-05-09T05:13:23.289Z,3.50
2024-05-09T05:18:23.409Z,3.70
2024-05-09T05:20:50.891Z,3.80
2024-05-09T05:23:19.955Z,4.00
2024-05-09T05:28:17.264Z,4.30
2024-05-09T05:30:46.964Z,4.40
2024-05-09T05:33:20.078Z,4.50
2024-05-09T05:35:47.772Z,4.80
2024-05-09T05:38:14.961Z,4.80
2024-05-09T05:40:43.062Z,4.90
2024-05-09T05:43:17.501Z,5.00
2024-05-09T05:50:41.346Z,5.50
2024-05-09T05:55:39.491Z,5.80
2024-05-09T05:58:10.590Z,6.00
2024-05-09T06:00:39.942Z,6.30
2024-05-09T06:03:12.338Z,6.50
2024-05-09T06:05:40.798Z,6.60
2024-05-09T06:08:08.976Z,6.90
2024-05-09T06:10:39.503Z,7.00
2024-05-09T06:13:11.053Z,7.10
2024-05-09T06:15:40.624Z,7.40
2024-05-09T06:18:09.677Z,7.50
2024-05-09T06:20:39.659Z,7.60
2024-05-09T06:23:08.088Z,7.80
2024-05-09T06:25:36.224Z,8.10
2024-05-09T06:30:38.878Z,7.90
2024-05-09T06:33:11.278Z,8.40
2024-05-09T06:35:40.606Z,9.00
2024-05-09T06:38:11.053Z,9.10
2024-05-09T06:40:41.484Z,9.40
2024-05-09T06:43:14.365Z,9.60
2024-05-09T06:45:44.147Z,9.80
2024-05-09T06:48:11.714Z,9.90
2024-05-09T06:50:41.176Z,10.00
2024-05-09T06:53:09.208Z,10.20
2024-05-09T06:55:37.294Z,10.30
2024-05-09T06:58:12.640Z,10.40
2024-05-09T07:00:41.570Z,10.70
2024-05-09T07:03:15.457Z,10.80
2024-05-09T07:05:49.312Z,11.00
2024-05-09T07:08:17.541Z,11.40
2024-05-09T07:10:45.182Z,11.80
2024-05-09T07:13:13.865Z,11.90
2024-05-09T07:15:42.255Z,12.10
2024-05-09T07:20:45.806Z,12.40
2024-05-09T07:23:13.420Z,12.40
2024-05-09T07:28:17.253Z,12.80
2024-05-09T07:30:45.000Z,12.80
2024-05-09T07:33:20.546Z,12.90
2024-05-09T07:35:49.314Z,13.00
2024-05-09T07:38:16.555Z,13.00
2024-05-09T07:40:44.011Z,13.10
2024-05-09T07:45:51.744Z,13.20
2024-05-09T07:52:37.164Z,13.30
2024-05-09T07:53:49.570Z,13.40
2024-05-09T07:56:23.771Z,13.40
2024-05-09T07:58:54.669Z,13.70
2024-05-09T08:01:22.021Z,13.70
2024-05-09T08:03:50.004Z,14.10
2024-05-09T08:06:17.382Z,14.30
2024-05-09T08:08:49.696Z,14.60
2024-05-09T08:11:17.083Z,14.90
2024-05-09T08:21:09.803Z,15.40
2024-05-09T08:23:37.028Z,15.70
2024-05-09T08:31:05.176Z,17.20
2024-05-09T08:50:54.108Z,17.00
2024-05-09T08:55:51.754Z,17.50
2024-05-09T08:58:20.157Z,17.10
2024-05-09T09:25:43.422Z,16.30
2024-05-09T09:48:23.076Z,19.90
2024-05-09T09:50:52.832Z,20.30
2024-05-09T09:53:21.947Z,20.60
2024-05-09T09:55:50.730Z,20.30
2024-05-09T09:58:22.070Z,19.80
2024-05-09T10:03:18.258Z,20.00
2024-05-09T10:05:47.482Z,18.80
2024-05-09T10:10:47.687Z,18.40
2024-05-09T10:15:48.476Z,17.60
2024-05-09T10:18:28.428Z,17.70
2024-05-09T10:20:57.930Z,17.50
2024-05-09T10:23:29.238Z,17.20
2024-05-09T10:26:05.204Z,16.90
2024-05-09T10:28:37.260Z,17.00
2024-05-09T10:31:14.730Z,17.10
2024-05-09T10:36:27.186Z,17.50
2024-05-09T10:41:23.828Z,17.20
2024-05-09T10:43:52.142Z,18.30
2024-05-09T10:46:19.937Z,16.90
2024-05-09T10:48:51.868Z,16.60
2024-05-09T10:51:19.880Z,16.50
2024-05-09T10:53:50.876Z,16.70
2024-05-09T10:56:19.053Z,16.60
2024-05-09T11:01:14.316Z,16.50
2024-05-09T11:03:42.257Z,16.60
2024-05-09T11:21:13.529Z,18.70
2024-05-09T11:28:38.275Z,18.70
2024-05-09T11:43:34.858Z,19.80
2024-05-09T11:46:04.357Z,19.30
2024-05-09T11:48:32.388Z,18.80
2024-05-09T11:53:27.363Z,18.40
2024-05-09T12:25:39.592Z,19.80
2024-05-09T12:28:08.335Z,19.60
2024-05-09T12:38:18.494Z,18.20
2024-05-09T12:43:13.190Z,17.50
2024-05-09T12:45:40.754Z,17.60
2024-05-09T13:03:20.368Z,20.40
2024-05-09T13:10:43.348Z,20.90
2024-05-09T13:15:39.201Z,19.60
2024-05-09T13:23:07.685Z,19.40
2024-05-09T13:28:07.605Z,21.10
2024-05-09T13:40:49.207Z,19.10
2024-05-09T13:55:38.172Z,19.10
2024-05-09T13:58:06.245Z,20.30
